KILN

Wilmington Airpark

Wilmington, Ohio, USA
METAR KILN 230054Z AUTO 24009KT 10SM CLR 11/00 A3010 RMK AO2 SLP206 T01110000
Observed Flight Rules
Oct-23 @ 00:54 UTC (17 minutes ago) Visual Flight Rules
Wind Visibility Clouds
240° at 9 knots 10 miles
  • Clear skies
Temperatures Readings
Current 11°C / 52°F
Dewpoint 0°C / 32°F
Humidity 47%
Altimeter 30.1" Hg
Pressure 1020.6 hPa
Elevation 322
METAR KILN 230054Z AUTO 24009KT 10SM CLR 11/00 A3010 RMK AO2 SLP206 T01110000
Observed Flight Rules
Oct-23 @ 00:54 UTC
(17 minutes ago)
VFR
Wind Visibility
240° at 9 knots 10 miles
Clouds
  • Clear skies
Temperature Dewpoint
11°C / 52°F 0°C / 32°F
Humidity Altimeter Pressure
47% 30.1" Hg 1020.6 hPa